« Back
NWS Peachtree City, Ga » Text Product » ATL Terminal Aerodrome Forecast


Printer-friendly Version
Current Version              Previous Versions:   1  2  3  4  5  6  7  8  9  

Terminal Aerodrome Forecast

021
FTUS42 KFFC 041930 AAA
TAFATL
TAF AMD
KATL 041930Z 0419/0524 30006KT P6SM SCT060 SCT250
     FM050200 27003KT P6SM FEW080 SCT250
     FM051600 25005KT P6SM SCT050 PROB30 0520/0523 6SM -TSRA
      BKN040CB=

USA.gov is the U.S. government's official web portal to all federal, state and local government web resources and services.